Terminal Aerodrome Forecast
Issued by NWS

Home | Current Version | Previous Version | Text Only | Print | Product List | Glossary On
Versions: 1 2 3 4 5 6 7 8 9 10 11 12 13 14 15 16
010
FTUS45 KPSR 202325
TAFBLH
TAF
KBLH 202325Z 2100/2124 28015KT P6SM BKN100
     FM210300 27010KT P6SM SKC
     FM210900 31006KT P6SM SKC
     FM211800 35008KT P6SM SKC=

USA.gov is the U.S. government's official web portal to all federal, state and local government web resources and services.